createdAt,value
2023-08-22T00:01:55.317Z,99603.63
2023-08-22T00:04:44.452Z,99607.50
2023-08-22T00:07:32.209Z,99603.63
2023-08-22T00:10:21.455Z,99613.28
2023-08-22T00:13:09.228Z,99605.91
2023-08-22T00:16:00.660Z,99608.31
2023-08-22T00:18:48.454Z,99610.22
2023-08-22T00:21:36.118Z,99609.19
2023-08-22T00:24:24.876Z,99614.47
2023-08-22T00:27:13.960Z,99616.84
2023-08-22T00:30:01.792Z,99612.38
2023-08-22T00:32:49.601Z,99608.03
2023-08-22T00:35:37.355Z,99612.69
2023-08-22T00:38:25.015Z,99615.78
2023-08-22T00:41:12.624Z,99614.75
2023-08-22T00:44:01.764Z,99612.47
2023-08-22T00:46:49.921Z,99612.69
2023-08-22T00:49:38.008Z,99618.78
2023-08-22T00:52:26.010Z,99608.84
2023-08-22T00:55:14.696Z,99613.31
2023-08-22T00:58:03.156Z,99608.63
2023-08-22T01:00:52.197Z,99607.25
2023-08-22T01:03:40.323Z,99607.97
2023-08-22T01:06:35.572Z,99607.28
2023-08-22T01:09:29.752Z,99608.69
2023-08-22T01:12:23.776Z,99606.13
2023-08-22T01:15:22.340Z,99605.13
2023-08-22T01:18:14.699Z,99607.78
2023-08-22T01:21:06.798Z,99602.63
2023-08-22T01:23:55.881Z,99607.00
2023-08-22T01:26:43.600Z,99605.59
2023-08-22T01:29:37.964Z,99614.25
2023-08-22T01:32:30.148Z,99621.06
2023-08-22T01:35:23.319Z,99616.81
2023-08-22T01:38:13.241Z,99615.25
2023-08-22T01:41:04.190Z,99617.88
2023-08-22T01:43:52.377Z,99587.91
2023-08-22T01:46:40.050Z,99609.84
2023-08-22T01:49:28.026Z,99615.53
2023-08-22T01:52:15.758Z,99619.59
2023-08-22T01:55:04.891Z,99616.16
2023-08-22T01:57:53.991Z,99618.03
2023-08-22T02:00:41.636Z,99613.91
2023-08-22T02:03:29.401Z,99620.47
2023-08-22T02:06:17.131Z,99618.13
2023-08-22T02:09:06.385Z,99611.91
2023-08-22T02:11:54.411Z,99583.75
2023-08-22T02:14:43.433Z,99605.84
2023-08-22T02:17:31.206Z,99611.81
2023-08-22T02:20:19.753Z,99608.56
2023-08-22T02:23:08.722Z,99611.50
2023-08-22T02:25:56.405Z,99589.25
2023-08-22T02:28:44.116Z,99614.72
2023-08-22T02:31:33.246Z,99624.16
2023-08-22T02:34:21.001Z,99614.69
2023-08-22T02:37:08.655Z,99610.53
2023-08-22T02:39:57.147Z,99611.94
2023-08-22T02:42:45.982Z,99614.25
2023-08-22T02:45:33.691Z,99617.38
2023-08-22T02:48:22.772Z,99614.22
2023-08-22T02:51:10.543Z,99615.66
2023-08-22T02:53:58.222Z,99616.97
2023-08-22T02:56:45.923Z,99618.88
2023-08-22T02:59:33.665Z,99629.44
2023-08-22T03:02:21.391Z,99629.09
2023-08-22T03:05:12.952Z,99629.13
2023-08-22T03:08:00.957Z,99631.31
2023-08-22T03:10:48.549Z,99633.88
2023-08-22T03:13:37.080Z,99631.31
2023-08-22T03:16:24.818Z,99629.50
2023-08-22T03:19:12.498Z,99638.97
2023-08-22T03:22:01.828Z,99629.25
2023-08-22T03:24:49.521Z,99637.75
2023-08-22T03:27:37.396Z,99643.38
2023-08-22T03:30:25.473Z,99639.78
2023-08-22T03:33:13.100Z,99633.28
2023-08-22T03:36:01.494Z,99641.69
2023-08-22T03:38:52.452Z,99643.75
2023-08-22T03:41:40.279Z,99640.22
2023-08-22T03:44:28.017Z,99641.47
2023-08-22T03:47:15.661Z,99634.78
2023-08-22T03:50:03.450Z,99643.06
2023-08-22T03:52:51.092Z,99641.84
2023-08-22T03:55:40.411Z,99637.19
2023-08-22T03:58:28.120Z,99640.22
2023-08-22T04:01:15.912Z,99640.16
2023-08-22T04:04:03.626Z,99640.44
2023-08-22T04:06:51.287Z,99638.88
2023-08-22T04:09:39.145Z,99642.44
2023-08-22T04:12:28.346Z,99652.63
2023-08-22T04:15:16.783Z,99649.09
2023-08-22T04:18:04.724Z,99646.13
2023-08-22T04:20:52.381Z,99653.22
2023-08-22T04:23:40.096Z,99649.53
2023-08-22T04:26:27.806Z,99657.34
2023-08-22T04:29:17.294Z,99664.72
2023-08-22T04:32:05.084Z,99665.72
2023-08-22T04:34:52.817Z,99659.25
2023-08-22T04:37:40.888Z,99662.44
2023-08-22T04:40:28.816Z,99668.38
2023-08-22T04:43:16.473Z,99678.06
2023-08-22T04:46:05.512Z,99677.44
2023-08-22T04:48:53.243Z,99673.41
2023-08-22T04:51:40.948Z,99672.38
2023-08-22T04:54:28.749Z,99671.75
2023-08-22T04:57:16.434Z,99679.94
2023-08-22T05:00:05.198Z,99673.22
2023-08-22T05:02:56.835Z,99673.22
2023-08-22T05:05:44.935Z,99682.03
2023-08-22T05:08:33.088Z,99680.84
2023-08-22T05:11:20.814Z,99687.81
2023-08-22T05:14:08.787Z,99680.81
2023-08-22T05:16:56.578Z,99685.69
2023-08-22T05:19:45.762Z,99681.31
2023-08-22T05:22:33.429Z,99681.50
2023-08-22T05:25:21.291Z,99643.03
2023-08-22T05:28:09.587Z,99689.69
2023-08-22T05:30:57.564Z,99692.22
2023-08-22T05:33:45.533Z,99693.53
2023-08-22T05:36:36.510Z,99677.59
2023-08-22T05:39:24.286Z,99697.13
2023-08-22T05:42:12.043Z,99692.00
2023-08-22T05:44:59.731Z,99684.75
2023-08-22T05:47:47.495Z,99691.44
2023-08-22T05:50:35.622Z,99696.41
2023-08-22T05:53:25.248Z,99697.63
2023-08-22T05:56:13.136Z,99692.28
2023-08-22T05:59:01.106Z,99689.63
2023-08-22T06:01:48.901Z,99694.84
2023-08-22T06:04:36.771Z,99693.50
2023-08-22T06:07:24.647Z,99675.75
2023-08-22T06:10:13.900Z,99694.09
2023-08-22T06:13:01.716Z,99698.47
2023-08-22T06:15:49.776Z,99696.84
2023-08-22T06:18:37.479Z,99701.72
2023-08-22T06:21:25.325Z,99695.03
2023-08-22T06:24:13.135Z,99704.81
2023-08-22T06:27:02.171Z,99703.16
2023-08-22T06:29:49.945Z,99700.16
2023-08-22T06:32:37.631Z,99700.91
2023-08-22T06:35:26.324Z,99704.53
2023-08-22T06:38:13.953Z,99707.69
2023-08-22T06:41:06.280Z,99702.69
2023-08-22T06:43:55.356Z,99633.06
2023-08-22T06:46:43.104Z,99706.28
2023-08-22T06:49:31.144Z,99627.31
2023-08-22T06:52:19.590Z,99708.78
2023-08-22T06:55:08.395Z,99645.75
2023-08-22T06:57:56.189Z,99701.44
2023-08-22T07:00:45.721Z,99705.88
2023-08-22T07:03:33.571Z,99714.91
2023-08-22T07:06:21.288Z,99707.81
2023-08-22T07:09:09.563Z,99703.59
2023-08-22T07:11:57.289Z,99712.31
2023-08-22T07:14:45.219Z,99709.94
2023-08-22T07:17:34.408Z,99688.09
2023-08-22T07:20:22.089Z,99704.84
2023-08-22T07:23:09.989Z,99706.75
2023-08-22T07:25:57.681Z,99702.91
2023-08-22T07:28:45.699Z,99702.50
2023-08-22T07:31:33.499Z,99699.19
2023-08-22T07:34:22.729Z,99698.84
2023-08-22T07:37:10.499Z,99694.13
2023-08-22T07:39:58.465Z,99690.47
2023-08-22T07:42:46.168Z,99665.66
2023-08-22T07:45:33.882Z,99692.75
2023-08-22T07:48:21.613Z,99687.94
2023-08-22T07:51:11.256Z,99690.81
2023-08-22T07:53:59.441Z,99687.38
2023-08-22T07:56:47.227Z,99631.97
2023-08-22T07:59:35.207Z,99686.91
2023-08-22T08:02:23.129Z,99683.69
2023-08-22T08:05:11.833Z,99683.34
2023-08-22T08:08:01.015Z,99690.50
2023-08-22T08:10:48.889Z,99680.25
2023-08-22T08:13:37.029Z,99682.28
2023-08-22T08:16:39.221Z,99681.78
2023-08-22T08:19:29.109Z,99680.44
2023-08-22T08:22:17.157Z,99686.81
2023-08-22T08:25:07.122Z,99681.41
2023-08-22T08:27:56.213Z,99683.66
2023-08-22T08:30:44.166Z,99683.38
2023-08-22T08:33:32.036Z,99684.03
2023-08-22T08:36:20.031Z,99679.91
2023-08-22T08:39:07.859Z,99689.28
2023-08-22T08:42:05.226Z,99678.84
2023-08-22T08:44:53.570Z,99682.50
2023-08-22T08:47:41.594Z,99677.03
2023-08-22T08:50:29.891Z,99686.47
2023-08-22T08:53:17.577Z,99688.88
2023-08-22T08:56:11.192Z,99680.81
2023-08-22T08:59:00.755Z,99687.22
2023-08-22T09:01:51.269Z,99681.72
2023-08-22T09:04:40.805Z,99672.91
2023-08-22T09:07:28.667Z,99673.97
2023-08-22T09:10:34.582Z,99667.41
2023-08-22T09:13:38.957Z,99667.44
2023-08-22T09:16:37.991Z,99664.44
2023-08-22T09:19:25.844Z,99660.81
2023-08-22T09:22:15.661Z,99629.66
2023-08-22T09:25:05.377Z,99655.59
2023-08-22T09:27:53.457Z,99641.50
2023-08-22T09:30:48.751Z,99645.69
2023-08-22T09:33:48.287Z,99648.44
2023-08-22T09:36:36.085Z,99653.69
2023-08-22T09:39:25.049Z,99646.53
2023-08-22T09:42:12.976Z,99570.34
2023-08-22T09:45:01.187Z,99633.28
2023-08-22T09:47:53.505Z,99631.34
2023-08-22T09:50:45.072Z,99624.41
2023-08-22T09:53:33.908Z,99612.50
2023-08-22T09:56:22.317Z,99607.28
2023-08-22T09:59:10.404Z,99619.41
2023-08-22T10:01:59.262Z,99610.00
2023-08-22T10:04:47.662Z,99614.44
2023-08-22T10:07:37.245Z,99594.56
2023-08-22T10:10:25.808Z,99616.34
2023-08-22T10:13:14.115Z,99617.09
2023-08-22T10:16:02.209Z,99615.97
2023-08-22T10:19:02.710Z,99608.19
2023-08-22T10:21:50.801Z,99608.97
2023-08-22T10:24:40.243Z,99594.69
2023-08-22T10:27:30.137Z,99545.88
2023-08-22T10:30:22.290Z,99595.50
2023-08-22T10:33:24.668Z,99594.59
2023-08-22T10:36:18.324Z,99593.38
2023-08-22T10:39:07.082Z,99576.59
2023-08-22T10:41:58.630Z,99571.19
2023-08-22T10:44:50.353Z,99576.59
2023-08-22T10:47:38.484Z,99579.53
2023-08-22T10:50:34.703Z,99544.81
2023-08-22T10:53:28.402Z,99481.22
2023-08-22T10:56:25.927Z,99555.41
2023-08-22T10:59:14.999Z,99565.03
2023-08-22T11:02:02.871Z,99569.44
2023-08-22T11:04:51.622Z,99566.09
2023-08-22T11:07:41.130Z,99540.88
2023-08-22T11:10:29.083Z,99554.50
2023-08-22T11:13:16.702Z,99559.66
2023-08-22T11:16:10.102Z,99556.56
2023-08-22T11:18:58.876Z,99555.53
2023-08-22T11:21:46.872Z,99553.09
2023-08-22T11:24:34.904Z,99539.44
2023-08-22T11:27:22.734Z,99544.91
2023-08-22T11:30:12.309Z,99545.13
2023-08-22T11:33:01.334Z,99528.09
2023-08-22T11:35:51.982Z,99529.72
2023-08-22T11:38:42.287Z,99495.75
2023-08-22T11:41:30.650Z,99505.91
2023-08-22T11:44:18.924Z,99505.47
2023-08-22T11:47:13.954Z,99534.53
2023-08-22T11:50:03.943Z,99520.91
2023-08-22T11:52:54.797Z,99517.06
2023-08-22T11:55:48.575Z,99529.25
2023-08-22T11:58:44.597Z,99524.06
2023-08-22T12:01:33.612Z,99497.78
2023-08-22T12:04:21.613Z,99523.69
2023-08-22T12:07:10.915Z,99516.72
2023-08-22T12:09:59.946Z,99503.66
2023-08-22T12:12:47.807Z,99515.09
2023-08-22T12:15:35.947Z,99501.69
2023-08-22T12:18:30.865Z,99508.59
2023-08-22T12:21:19.640Z,99503.50
2023-08-22T12:24:08.949Z,99500.56
2023-08-22T12:26:56.623Z,99513.19
2023-08-22T12:29:46.990Z,99509.97
2023-08-22T12:32:35.373Z,99496.59
2023-08-22T12:35:23.123Z,99483.09
2023-08-22T12:38:11.590Z,99500.13
2023-08-22T12:41:02.858Z,99498.00
2023-08-22T12:43:50.625Z,99491.28
2023-08-22T12:46:38.364Z,99475.66
2023-08-22T12:49:26.155Z,99480.13
2023-08-22T12:52:14.136Z,99479.53
2023-08-22T12:55:03.718Z,99474.94
2023-08-22T12:57:52.908Z,99481.88
2023-08-22T13:00:40.590Z,99470.41
2023-08-22T13:03:28.427Z,99415.19
2023-08-22T13:06:16.192Z,99474.03
2023-08-22T13:09:04.338Z,99476.84
2023-08-22T13:11:52.329Z,99473.78
2023-08-22T13:14:41.612Z,99469.81
2023-08-22T13:17:29.995Z,99475.78
2023-08-22T13:20:18.302Z,99469.44
2023-08-22T13:23:08.039Z,99461.25
2023-08-22T13:25:56.444Z,99459.28
2023-08-22T13:28:44.125Z,99456.50
2023-08-22T13:31:34.377Z,99463.69
2023-08-22T13:34:22.245Z,99453.31
2023-08-22T13:37:09.985Z,99457.91
2023-08-22T13:39:57.624Z,99472.31
2023-08-22T13:42:45.490Z,99468.50
2023-08-22T13:45:33.505Z,99462.72
2023-08-22T13:48:23.598Z,99464.56
2023-08-22T13:51:11.564Z,99467.03
2023-08-22T13:54:01.095Z,99468.19
2023-08-22T13:56:48.947Z,99457.63
2023-08-22T13:59:38.300Z,99459.31
2023-08-22T14:02:25.942Z,99454.31
2023-08-22T14:05:15.275Z,99450.00
2023-08-22T14:08:02.929Z,99454.41
2023-08-22T14:10:50.780Z,99451.78
2023-08-22T14:13:38.472Z,99459.75
2023-08-22T14:16:26.172Z,99466.84
2023-08-22T14:19:14.493Z,99467.59
2023-08-22T14:22:03.513Z,99452.66
2023-08-22T14:24:51.383Z,99454.91
2023-08-22T14:27:39.110Z,99449.91
2023-08-22T14:30:27.112Z,99447.22
2023-08-22T14:33:14.873Z,99453.31
2023-08-22T14:36:06.757Z,99449.38
2023-08-22T14:38:55.783Z,99449.03
2023-08-22T14:41:43.611Z,99443.44
2023-08-22T14:44:31.546Z,99448.16
2023-08-22T14:47:19.304Z,99422.34
2023-08-22T14:50:08.222Z,99445.97
2023-08-22T14:52:55.932Z,99446.28
2023-08-22T14:55:57.834Z,99441.53
2023-08-22T14:58:47.558Z,99437.38
2023-08-22T15:01:35.479Z,99434.84
2023-08-22T15:04:26.259Z,99441.50
2023-08-22T15:07:14.126Z,99440.72
2023-08-22T15:10:01.802Z,99443.41
2023-08-22T15:12:51.957Z,99430.13
2023-08-22T15:15:39.731Z,99429.25
2023-08-22T15:18:28.109Z,99422.03
2023-08-22T15:24:04.137Z,99424.59
2023-08-22T15:26:52.143Z,99419.06
2023-08-22T15:29:41.291Z,99422.06
2023-08-22T15:32:29.504Z,99420.78
2023-08-22T15:35:17.227Z,99416.34
2023-08-22T15:38:05.062Z,99421.28
2023-08-22T15:40:53.535Z,99423.56
2023-08-22T15:43:41.439Z,99415.78
2023-08-22T15:46:30.792Z,99423.84
2023-08-22T15:49:18.454Z,99423.84
2023-08-22T15:52:07.142Z,99421.66
2023-08-22T15:54:55.050Z,99424.94
2023-08-22T15:57:42.792Z,99420.50
2023-08-22T16:00:31.571Z,99433.56
2023-08-22T16:03:20.819Z,99433.47
2023-08-22T16:06:08.836Z,99433.00
2023-08-22T16:08:56.498Z,99430.28
2023-08-22T16:11:47.115Z,99438.84
2023-08-22T16:14:34.836Z,99435.28
2023-08-22T16:17:22.611Z,99443.06
2023-08-22T16:20:12.949Z,99449.97
2023-08-22T16:23:02.699Z,99451.00
2023-08-22T16:25:50.562Z,99459.66
2023-08-22T16:28:38.215Z,99470.75
2023-08-22T16:31:28.452Z,99475.81
2023-08-22T16:34:16.502Z,99479.19
2023-08-22T16:37:05.949Z,99481.09
2023-08-22T16:39:53.881Z,99485.81
2023-08-22T16:42:41.637Z,99488.03
2023-08-22T16:45:29.612Z,99490.00
2023-08-22T16:48:17.442Z,99491.66
2023-08-22T16:51:05.270Z,99496.09
2023-08-22T16:53:54.458Z,99471.63
2023-08-22T16:56:42.064Z,99501.94
2023-08-22T16:59:29.925Z,99496.44
2023-08-22T17:02:17.787Z,99499.44
2023-08-22T17:05:07.073Z,99508.25
2023-08-22T17:07:55.035Z,99514.06
2023-08-22T17:10:44.365Z,99520.16
2023-08-22T17:13:32.165Z,99523.16
2023-08-22T17:16:19.850Z,99522.91
2023-08-22T17:19:07.618Z,99531.19
2023-08-22T17:21:55.214Z,99526.78
2023-08-22T17:24:43.160Z,99532.84
2023-08-22T17:27:32.292Z,99530.88
2023-08-22T17:30:20.861Z,99526.22
2023-08-22T17:33:08.954Z,99505.78
2023-08-22T17:35:56.614Z,99525.41
2023-08-22T17:38:46.016Z,99520.69
2023-08-22T17:41:33.934Z,99525.38
2023-08-22T17:44:23.421Z,99522.06
2023-08-22T17:47:11.487Z,99519.03
2023-08-22T17:49:59.234Z,99520.72
2023-08-22T17:52:46.908Z,99525.13
2023-08-22T17:55:35.841Z,99526.75
2023-08-22T17:58:24.575Z,99529.53
2023-08-22T18:01:14.005Z,99541.41
2023-08-22T18:04:02.626Z,99553.25
2023-08-22T18:06:50.322Z,99551.59
2023-08-22T18:09:38.002Z,99560.94
2023-08-22T18:12:25.741Z,99558.78
2023-08-22T18:15:13.471Z,99558.50
2023-08-22T18:18:02.707Z,99565.09
2023-08-22T18:20:50.560Z,99562.88
2023-08-22T18:23:39.230Z,99565.94
2023-08-22T18:26:26.882Z,99581.66
2023-08-22T18:29:14.739Z,99574.44
2023-08-22T18:32:02.581Z,99574.41
2023-08-22T18:34:51.679Z,99579.66
2023-08-22T18:37:39.963Z,99575.25
2023-08-22T18:40:27.593Z,99579.91
2023-08-22T18:43:15.421Z,99565.88
2023-08-22T18:46:03.096Z,99571.94
2023-08-22T18:48:51.229Z,99582.16
2023-08-22T18:51:40.253Z,99588.84
2023-08-22T18:54:27.966Z,99591.78
2023-08-22T18:57:15.672Z,99590.53
2023-08-22T19:00:03.345Z,99585.59
2023-08-22T19:02:51.236Z,99579.63
2023-08-22T19:05:38.924Z,99595.19
2023-08-22T19:08:28.525Z,99596.16
2023-08-22T19:11:16.355Z,99595.09
2023-08-22T19:14:04.345Z,99595.84
2023-08-22T19:16:52.301Z,99594.22
2023-08-22T19:19:39.906Z,99594.13
2023-08-22T19:22:28.003Z,99588.19
2023-08-22T19:25:17.088Z,99592.34
2023-08-22T19:28:05.416Z,99555.50
2023-08-22T19:30:56.730Z,99598.41
2023-08-22T19:33:45.773Z,99606.19
2023-08-22T19:36:34.779Z,99601.69
2023-08-22T19:39:22.527Z,99537.94
2023-08-22T19:42:11.775Z,99611.22
2023-08-22T19:45:00.107Z,99617.81
2023-08-22T19:47:48.527Z,99612.28
2023-08-22T19:50:36.407Z,99621.34
2023-08-22T19:53:24.133Z,99622.47
2023-08-22T19:56:11.852Z,99617.69
2023-08-22T19:59:00.907Z,99615.19
2023-08-22T20:01:48.777Z,99621.06
2023-08-22T20:04:36.642Z,99614.38
2023-08-22T20:07:24.640Z,99617.53
2023-08-22T20:10:12.609Z,99619.28
2023-08-22T20:13:00.747Z,99619.81
2023-08-22T20:15:50.300Z,99628.03
2023-08-22T20:18:38.065Z,99624.53
2023-08-22T20:21:26.482Z,99629.00
2023-08-22T20:24:15.888Z,99633.16
2023-08-22T20:27:05.452Z,99634.19
2023-08-22T20:29:53.176Z,99641.56
2023-08-22T20:32:42.485Z,99623.88
2023-08-22T20:35:30.284Z,99642.81
2023-08-22T20:38:17.997Z,99580.44
2023-08-22T20:41:05.769Z,99643.13
2023-08-22T20:43:53.440Z,99637.03
2023-08-22T20:46:41.280Z,99638.44
2023-08-22T20:49:30.346Z,99639.25
2023-08-22T20:52:18.276Z,99649.59
2023-08-22T20:55:06.897Z,99642.44
2023-08-22T20:57:54.697Z,99652.06
2023-08-22T21:00:42.454Z,99647.00
2023-08-22T21:03:30.323Z,99658.41
2023-08-22T21:06:19.491Z,99650.50
2023-08-22T21:09:07.163Z,99640.56
2023-08-22T21:12:01.376Z,99549.59
2023-08-22T21:14:48.845Z,99651.88
2023-08-22T21:17:36.621Z,99643.53
2023-08-22T21:20:24.318Z,99588.69
2023-08-22T21:23:13.665Z,99659.78
2023-08-22T21:26:02.248Z,99661.78
2023-08-22T21:28:49.945Z,99663.97
2023-08-22T21:31:38.039Z,99657.94
2023-08-22T21:34:25.780Z,99664.88
2023-08-22T21:37:13.450Z,99664.66
2023-08-22T21:40:02.554Z,99661.81
2023-08-22T21:42:50.232Z,99593.84
2023-08-22T21:45:38.103Z,99667.19
2023-08-22T21:48:25.825Z,99661.22
2023-08-22T21:51:13.728Z,99659.22
2023-08-22T21:54:01.333Z,99655.16
2023-08-22T21:56:50.668Z,99659.53
2023-08-22T21:59:38.392Z,99595.47
2023-08-22T22:02:26.278Z,99668.69
2023-08-22T22:05:14.054Z,99642.13
2023-08-22T22:08:01.757Z,99627.06
2023-08-22T22:10:53.306Z,99673.38
2023-08-22T22:13:42.269Z,99668.31
2023-08-22T22:16:42.964Z,99663.09
2023-08-22T22:19:32.507Z,99663.78
2023-08-22T22:22:20.294Z,99673.91
2023-08-22T22:25:09.359Z,99663.72
2023-08-22T22:27:57.226Z,99675.84
2023-08-22T22:30:46.546Z,99672.94
2023-08-22T22:33:34.224Z,99675.41
2023-08-22T22:36:22.127Z,99674.88
2023-08-22T22:39:10.681Z,99664.66
2023-08-22T22:41:58.403Z,99666.44
2023-08-22T22:44:46.893Z,99668.31
2023-08-22T22:47:36.274Z,99640.97
2023-08-22T22:50:24.081Z,99662.72
2023-08-22T22:53:11.773Z,99661.28
2023-08-22T22:55:59.748Z,99654.03
2023-08-22T22:58:47.577Z,99650.72
2023-08-22T23:01:35.322Z,99652.28
2023-08-22T23:04:24.745Z,99634.66
2023-08-22T23:07:12.935Z,99652.88
2023-08-22T23:10:00.695Z,99643.84
2023-08-22T23:12:49.411Z,99642.16
2023-08-22T23:15:37.165Z,99643.38
2023-08-22T23:18:25.047Z,99649.41
2023-08-22T23:21:14.124Z,99647.56
2023-08-22T23:24:02.109Z,99571.41
2023-08-22T23:26:49.864Z,99642.41
2023-08-22T23:29:37.781Z,99641.31
2023-08-22T23:32:28.347Z,99640.50
2023-08-22T23:35:16.118Z,99646.31
2023-08-22T23:38:06.136Z,99643.81
2023-08-22T23:40:53.889Z,99643.94
2023-08-22T23:43:41.895Z,99641.53
2023-08-22T23:46:29.616Z,99645.47
2023-08-22T23:49:17.618Z,99645.34
2023-08-22T23:52:05.873Z,99644.75
2023-08-22T23:54:55.012Z,99641.31
2023-08-22T23:57:42.881Z,99636.06
